Time;durP1;ratioP1;P1;durP2;ratioP2;P2;SDS_P1;SDS_P2;PMS_P1;PMS_P2;Temp;Humidity;BMP_temperature;BMP_pressure;BME280_temperature;BME280_humidity;BME280_pressure;Samples;Min_cycle;Max_cycle;Signal;HPM_P1;HPM_P2
2023/05/29 00:01:58;;;;;;;5.18;2.65;;;;;;;14.08;100.00;98764.13;5048222;28;20026;-65
2023/05/29 00:04:23;;;;;;;6.68;2.55;;;;;;;14.05;100.00;98762.72;5059097;28;20046;-66
2023/05/29 00:06:49;;;;;;;5.28;2.70;;;;;;;13.96;100.00;98773.06;5034684;28;20158;-65
2023/05/29 00:09:15;;;;;;;3.75;2.20;;;;;;;13.92;100.00;98760.13;5032946;28;20029;-66
2023/05/29 00:11:40;;;;;;;7.03;2.38;;;;;;;13.87;100.00;98768.97;5029509;28;20028;-65
2023/05/29 00:14:06;;;;;;;6.22;2.60;;;;;;;13.87;100.00;98768.97;5033236;28;20373;-65
2023/05/29 00:16:31;;;;;;;8.00;2.55;;;;;;;13.85;100.00;98767.53;5040480;28;20493;-65
2023/05/29 00:18:57;;;;;;;9.10;2.50;;;;;;;13.79;100.00;98751.06;5053306;28;20033;-65
2023/05/29 00:21:24;;;;;;;7.60;2.83;;;;;;;13.72;100.00;98761.16;5053040;28;20029;-65
2023/05/29 00:23:49;;;;;;;7.78;2.50;;;;;;;13.76;100.00;98761.56;5051848;28;20023;-65
2023/05/29 00:26:16;;;;;;;7.55;2.55;;;;;;;13.71;100.00;98750.53;5046598;28;20048;-65
2023/05/29 00:28:42;;;;;;;6.40;2.10;;;;;;;13.76;100.00;98756.13;5035297;28;20037;-65
2023/05/29 00:31:08;;;;;;;5.47;2.05;;;;;;;13.89;100.00;98744.28;5038476;28;20400;-65
2023/05/29 00:33:33;;;;;;;5.53;2.13;;;;;;;13.83;100.00;98762.28;5035921;28;20029;-65
2023/05/29 00:35:58;;;;;;;6.28;2.22;;;;;;;13.87;100.00;98749.09;5037735;28;20029;-65
2023/05/29 00:38:24;;;;;;;5.10;2.55;;;;;;;13.81;100.00;98743.50;5038555;28;20566;-65
2023/05/29 00:40:49;;;;;;;7.45;2.28;;;;;;;13.89;100.00;98753.25;5058395;28;20079;-65
2023/05/29 00:43:15;;;;;;;4.40;2.65;;;;;;;13.73;100.00;98760.13;5030198;28;20107;-65
2023/05/29 00:45:40;;;;;;;7.70;3.42;;;;;;;13.37;100.00;98759.00;5044139;28;20024;-64
2023/05/29 00:48:06;;;;;;;9.45;3.50;;;;;;;13.08;100.00;98760.44;5045258;28;20056;-64
2023/05/29 00:50:33;;;;;;;7.80;3.42;;;;;;;12.88;100.00;98755.16;5035572;28;20032;-64
2023/05/29 00:53:01;;;;;;;9.95;3.78;;;;;;;12.76;100.00;98754.22;5053144;28;20452;-64
2023/05/29 00:55:28;;;;;;;8.07;3.50;;;;;;;12.60;100.00;98752.00;5048422;28;20033;-64
2023/05/29 00:57:54;;;;;;;8.27;3.67;;;;;;;12.48;100.00;98763.53;5040589;28;20056;-64
2023/05/29 01:00:20;;;;;;;5.95;3.30;;;;;;;12.35;100.00;98760.06;5035840;28;20052;-64
2023/05/29 01:02:46;;;;;;;10.57;3.90;;;;;;;12.28;100.00;98765.50;5034013;28;20123;-64
2023/05/29 01:05:12;;;;;;;8.35;3.33;;;;;;;12.25;100.00;98760.53;5033570;28;20048;-64
2023/05/29 01:07:38;;;;;;;6.60;2.95;;;;;;;12.34;100.00;98747.53;5038309;28;20488;-65
2023/05/29 01:10:05;;;;;;;10.73;3.40;;;;;;;12.38;100.00;98755.03;5038226;28;20460;-64
2023/05/29 01:12:39;;;;;;;8.13;3.40;;;;;;;12.34;100.00;98753.81;5061956;28;20040;-65
2023/05/29 01:15:23;;;;;;;6.88;2.90;;;;;;;12.30;100.00;98751.75;5037614;28;20033;-64
2023/05/29 01:18:11;;;;;;;8.35;3.45;;;;;;;12.26;100.00;98757.59;5034193;28;20025;-65
2023/05/29 01:20:37;;;;;;;6.50;2.90;;;;;;;12.23;100.00;98751.75;5053259;28;20024;-65
2023/05/29 01:23:05;;;;;;;6.00;3.08;;;;;;;12.28;100.00;98751.94;5055200;28;20110;-64
2023/05/29 01:26:20;;;;;;;8.02;2.67;;;;;;;12.14;100.00;98750.34;5036939;28;20412;-65
2023/05/29 01:28:51;;;;;;;7.10;2.88;;;;;;;12.00;100.00;98755.81;5026412;28;20710;-64
2023/05/29 01:31:20;;;;;;;7.22;3.65;;;;;;;11.89;100.00;98750.22;5036220;28;20063;-64
2023/05/29 01:33:56;;;;;;;7.55;3.45;;;;;;;11.74;100.00;98756.69;5034756;28;20028;-64
2023/05/29 01:36:22;;;;;;;8.35;3.38;;;;;;;11.64;100.00;98750.88;5031212;28;20040;-64
2023/05/29 01:38:50;;;;;;;6.43;3.50;;;;;;;11.62;100.00;98761.09;5042326;28;20029;-65
2023/05/29 01:41:16;;;;;;;13.25;3.25;;;;;;;11.59;100.00;98754.22;5036358;28;20082;-64
2023/05/29 01:43:44;;;;;;;13.93;3.80;;;;;;;11.51;100.00;98768.00;5032222;28;20345;-64
2023/05/29 01:46:11;;;;;;;4.28;2.78;;;;;;;11.47;100.00;98764.03;5040306;28;20373;-64
2023/05/29 01:48:36;;;;;;;8.27;3.33;;;;;;;11.39;100.00;98767.78;5033118;28;20036;-64
2023/05/29 01:51:02;;;;;;;6.80;3.08;;;;;;;11.40;100.00;98769.47;5043402;28;20024;-64
2023/05/29 01:53:27;;;;;;;9.80;3.05;;;;;;;11.36;100.00;98767.38;5056765;28;20611;-65
2023/05/29 01:55:53;;;;;;;7.32;3.08;;;;;;;11.37;100.00;98766.31;5035739;28;20057;-64
2023/05/29 01:58:21;;;;;;;11.40;3.33;;;;;;;11.33;100.00;98767.78;5035390;28;20032;-64
2023/05/29 02:00:47;;;;;;;6.93;3.33;;;;;;;11.22;100.00;98763.84;5047947;28;20036;-65
2023/05/29 02:03:13;;;;;;;11.90;4.40;;;;;;;11.23;100.00;98765.50;5029642;28;20021;-64
2023/05/29 02:05:38;;;;;;;7.68;2.95;;;;;;;11.27;100.00;98763.22;5048333;28;20028;-64
2023/05/29 02:08:03;;;;;;;10.93;3.25;;;;;;;11.22;100.00;98763.00;5048654;28;20048;-65
2023/05/29 02:10:29;;;;;;;11.95;4.28;;;;;;;11.16;100.00;98765.50;5045894;28;20027;-65
2023/05/29 02:12:55;;;;;;;9.25;3.80;;;;;;;11.13;100.00;98756.97;5045029;28;20021;-65
2023/05/29 02:15:20;;;;;;;10.45;4.32;;;;;;;11.11;100.00;98762.59;5035883;28;20087;-65
2023/05/29 02:17:46;;;;;;;8.68;4.22;;;;;;;10.98;100.00;98762.59;5033616;28;20032;-65
2023/05/29 02:20:11;;;;;;;11.23;3.88;;;;;;;10.88;100.00;98760.28;5033930;28;20032;-64
2023/05/29 02:22:37;;;;;;;8.55;4.45;;;;;;;10.87;100.00;98765.88;5035094;28;20036;-64
2023/05/29 02:25:02;;;;;;;8.88;4.20;;;;;;;10.78;100.00;98770.66;5033716;28;20111;-64
2023/05/29 02:27:27;;;;;;;10.95;4.85;;;;;;;10.75;100.00;98771.91;5037100;28;20036;-64
2023/05/29 02:29:53;;;;;;;11.63;4.80;;;;;;;10.67;100.00;98774.81;5033632;28;20054;-64
2023/05/29 02:32:19;;;;;;;15.13;4.88;;;;;;;10.62;100.00;98766.47;5041817;28;20020;-64
2023/05/29 02:34:45;;;;;;;12.40;4.22;;;;;;;10.65;100.00;98766.06;5058883;28;20025;-64
2023/05/29 02:37:10;;;;;;;9.48;4.88;;;;;;;10.60;100.00;98770.44;5051398;28;20024;-64
2023/05/29 02:39:36;;;;;;;9.30;4.80;;;;;;;10.53;100.00;98768.53;5049706;28;20027;-64
2023/05/29 02:42:01;;;;;;;8.73;4.70;;;;;;;10.55;100.00;98760.22;5037883;28;20559;-65
2023/05/29 02:44:26;;;;;;;9.00;5.05;;;;;;;10.57;100.00;98768.97;5031110;28;20049;-66
2023/05/29 02:46:52;;;;;;;10.45;5.10;;;;;;;10.53;100.00;98764.97;5039445;28;20350;-64
2023/05/29 02:49:17;;;;;;;14.18;5.78;;;;;;;10.57;100.00;98755.44;5028732;28;20028;-64
2023/05/29 02:51:42;;;;;;;9.57;4.95;;;;;;;10.48;100.00;98762.09;5051308;28;20032;-64
2023/05/29 02:54:08;;;;;;;10.80;5.03;;;;;;;10.47;100.00;98765.81;5052826;28;20021;-65
2023/05/29 02:56:34;;;;;;;12.52;5.75;;;;;;;10.37;100.00;98768.88;5035699;28;20033;-64
2023/05/29 02:59:00;;;;;;;14.38;5.43;;;;;;;10.33;100.00;98769.53;5045308;28;20124;-64
2023/05/29 03:01:25;;;;;;;11.68;5.22;;;;;;;10.27;100.00;98776.50;5049135;28;20107;-64
2023/05/29 03:03:51;;;;;;;9.93;5.57;;;;;;;10.33;100.00;98777.63;5034417;28;20112;-64
2023/05/29 03:06:17;;;;;;;14.43;5.47;;;;;;;10.24;100.00;98779.63;5035847;28;20040;-64
2023/05/29 03:08:44;;;;;;;10.57;4.72;;;;;;;10.21;100.00;98778.16;5034648;28;20033;-65
2023/05/29 03:11:11;;;;;;;9.70;5.47;;;;;;;10.17;100.00;98789.59;5042920;28;20140;-65
2023/05/29 03:13:37;;;;;;;9.85;5.30;;;;;;;10.14;100.00;98782.72;5033572;28;20116;-64
2023/05/29 03:16:03;;;;;;;11.27;5.63;;;;;;;10.11;100.00;98791.22;5032743;28;20103;-64
2023/05/29 03:18:28;;;;;;;10.75;4.95;;;;;;;10.12;100.00;98787.50;5035870;28;20441;-69
2023/05/29 03:20:54;;;;;;;16.23;4.68;;;;;;;10.04;100.00;98782.25;5047102;28;20024;-64
2023/05/29 03:23:20;;;;;;;11.48;4.95;;;;;;;10.05;100.00;98779.34;5053882;28;20112;-65
2023/05/29 03:25:46;;;;;;;10.75;4.80;;;;;;;10.08;100.00;98776.22;5037624;28;20056;-65
2023/05/29 03:28:11;;;;;;;8.75;4.50;;;;;;;10.08;100.00;98780.81;5040004;28;20035;-64
2023/05/29 03:30:37;;;;;;;9.07;4.45;;;;;;;10.08;100.00;98776.22;5058249;28;20104;-65
2023/05/29 03:33:03;;;;;;;7.78;4.38;;;;;;;10.08;100.00;98783.50;5056679;28;20495;-65
2023/05/29 03:35:29;;;;;;;11.07;4.07;;;;;;;10.02;100.00;98781.63;5070163;28;20033;-73
2023/05/29 03:37:57;;;;;;;11.32;4.30;;;;;;;10.02;100.00;98778.91;5047232;28;20040;-65
2023/05/29 03:40:22;;;;;;;10.23;4.68;;;;;;;9.94;100.00;98777.22;5021468;28;20060;-64
2023/05/29 03:42:48;;;;;;;11.27;4.13;;;;;;;9.96;100.00;98777.84;5050075;28;20036;-64
2023/05/29 03:45:13;;;;;;;11.63;4.45;;;;;;;9.96;100.00;98777.03;5039069;28;20472;-65
2023/05/29 03:47:39;;;;;;;12.63;4.50;;;;;;;9.92;100.00;98783.84;5035201;28;20033;-64
2023/05/29 03:50:05;;;;;;;7.50;4.22;;;;;;;9.87;100.00;98779.88;5063947;28;20032;-64
2023/05/29 03:52:30;;;;;;;8.88;4.65;;;;;;;9.95;100.00;98786.97;5039614;28;20075;-64
2023/05/29 03:54:56;;;;;;;10.18;4.20;;;;;;;10.11;100.00;98791.22;5054086;28;20025;-64
2023/05/29 03:57:21;;;;;;;11.32;3.97;;;;;;;10.13;100.00;98791.84;5055103;28;20016;-65
2023/05/29 03:59:46;;;;;;;7.03;3.90;;;;;;;10.24;100.00;98791.31;5054296;28;20033;-64
2023/05/29 04:02:12;;;;;;;10.23;3.83;;;;;;;10.27;100.00;98785.50;5047166;28;20547;-64
2023/05/29 04:04:39;;;;;;;10.25;4.50;;;;;;;10.35;100.00;98783.66;5065895;28;20031;-65
2023/05/29 04:07:05;;;;;;;15.75;4.00;;;;;;;10.42;100.00;98784.50;5037850;28;20025;-64
2023/05/29 04:09:30;;;;;;;8.82;3.60;;;;;;;10.53;100.00;98792.03;5064844;28;20036;-64
2023/05/29 04:11:56;;;;;;;10.85;3.75;;;;;;;10.63;100.00;98797.91;5025059;28;20021;-64
2023/05/29 04:14:21;;;;;;;7.28;3.83;;;;;;;10.78;100.00;98795.03;5048403;28;20040;-64
2023/05/29 04:16:46;;;;;;;8.40;3.80;;;;;;;10.91;100.00;98796.94;5049841;28;20059;-65
2023/05/29 04:19:12;;;;;;;8.02;4.03;;;;;;;11.02;100.00;98804.44;5045051;28;20071;-65
2023/05/29 04:21:37;;;;;;;9.05;4.03;;;;;;;11.01;100.00;98791.94;5049116;22;20031;-73
2023/05/29 04:24:03;;;;;;;8.38;4.10;;;;;;;11.13;100.00;98793.00;5043547;28;20835;-74
2023/05/29 04:26:28;;;;;;;10.30;4.60;;;;;;;11.28;100.00;98819.88;5031421;28;20025;-74
2023/05/29 04:28:57;;;;;;;8.25;4.45;;;;;;;11.33;100.00;98797.59;5038749;28;20033;-75
2023/05/29 04:31:24;;;;;;;10.87;3.63;;;;;;;11.41;100.00;98805.50;5055346;28;20121;-74
2023/05/29 04:33:54;;;;;;;9.50;3.78;;;;;;;11.49;100.00;98808.00;5052920;28;20021;-74
2023/05/29 04:36:23;;;;;;;8.05;4.20;;;;;;;11.49;100.00;98810.72;5042566;28;20029;-74
2023/05/29 04:38:50;;;;;;;;;;;;;;;11.55;100.00;98819.88;5053262;28;20044;-74
2023/05/29 04:41:16;;;;;;;7.03;3.55;;;;;;;11.62;100.00;98820.72;5053609;28;19919;-74
2023/05/29 04:43:41;;;;;;;8.35;3.15;;;;;;;11.66;100.00;98812.97;5053931;28;20033;-74
2023/05/29 04:46:12;;;;;;;7.03;3.97;;;;;;;11.62;100.00;98805.28;5033855;28;20479;-74
2023/05/29 04:48:40;;;;;;;6.32;3.78;;;;;;;11.65;100.00;98803.19;5051715;28;20025;-74
2023/05/29 04:51:06;;;;;;;7.55;3.95;;;;;;;11.58;100.00;98790.50;5051233;28;20402;-74
2023/05/29 04:53:31;;;;;;;10.82;3.88;;;;;;;11.81;100.00;98824.44;5058288;28;20032;-74
2023/05/29 04:55:56;;;;;;;7.68;3.65;;;;;;;11.95;100.00;98825.31;5049499;28;20036;-73
2023/05/29 04:58:24;;;;;;;8.05;3.58;;;;;;;12.11;100.00;98816.69;5049670;28;20021;-74
2023/05/29 05:00:49;;;;;;;6.55;4.05;;;;;;;12.19;100.00;98819.19;5049236;28;20100;-73
2023/05/29 05:03:16;;;;;;;12.68;4.15;;;;;;;12.34;100.00;98823.50;5057457;28;20505;-74
2023/05/29 05:05:43;;;;;;;13.80;4.18;;;;;;;12.54;100.00;98828.84;5050842;28;20021;-74
2023/05/29 05:08:09;;;;;;;8.43;3.95;;;;;;;12.57;100.00;98825.72;5034602;28;20017;-74
2023/05/29 05:10:35;;;;;;;8.73;3.65;;;;;;;12.82;100.00;98820.38;5048499;28;20135;-74
2023/05/29 05:13:02;;;;;;;9.35;3.70;;;;;;;13.00;100.00;98827.78;5036127;28;20174;-74
2023/05/29 05:15:28;;;;;;;9.77;4.50;;;;;;;13.12;100.00;98845.88;5047760;28;20099;-74
2023/05/29 05:17:53;;;;;;;12.35;3.90;;;;;;;13.12;100.00;98836.88;5052934;28;20453;-74
2023/05/29 05:20:18;;;;;;;7.53;3.80;;;;;;;13.27;100.00;98828.47;5050827;28;20029;-74
2023/05/29 05:22:44;;;;;;;6.88;3.88;;;;;;;13.51;100.00;98834.97;5031869;28;20045;-73
2023/05/29 05:25:09;;;;;;;9.90;3.72;;;;;;;13.54;100.00;98827.19;5049172;28;20022;-73
2023/05/29 05:27:35;;;;;;;11.10;3.17;;;;;;;13.85;100.00;98844.50;5046372;28;20395;-74
2023/05/29 05:30:01;;;;;;;7.03;3.30;;;;;;;13.99;100.00;98845.19;5041484;28;20028;-74
2023/05/29 05:32:26;;;;;;;6.82;3.47;;;;;;;14.13;100.00;98835.84;5033292;28;20037;-74
2023/05/29 05:34:51;;;;;;;7.43;3.70;;;;;;;14.53;100.00;98849.03;5051884;28;20098;-74
2023/05/29 05:37:17;;;;;;;7.22;3.63;;;;;;;14.52;100.00;98843.81;5049266;28;20500;-74
2023/05/29 05:39:43;;;;;;;6.75;3.72;;;;;;;14.52;100.00;98841.09;5051001;28;20058;-73
2023/05/29 05:42:08;;;;;;;7.05;3.60;;;;;;;14.64;100.00;98837.38;5032633;28;20029;-74
2023/05/29 05:44:33;;;;;;;6.13;3.30;;;;;;;14.79;100.00;98847.06;5034438;28;20378;-75
2023/05/29 05:46:59;;;;;;;5.72;3.50;;;;;;;14.98;100.00;98837.75;5047748;28;20032;-76
2023/05/29 05:49:24;;;;;;;10.30;3.78;;;;;;;15.32;100.00;98851.75;5046551;28;20040;-77
2023/05/29 05:51:50;;;;;;;9.15;3.53;;;;;;;15.54;100.00;98869.22;5024867;28;20033;-75
2023/05/29 05:54:16;;;;;;;9.20;3.42;;;;;;;15.84;100.00;98862.88;5028634;28;20021;-75
2023/05/29 05:56:41;;;;;;;8.75;3.20;;;;;;;16.29;100.00;98866.91;5044872;28;20029;-74
2023/05/29 05:59:06;;;;;;;6.55;3.03;;;;;;;16.55;100.00;98846.47;5026532;28;20120;-74
2023/05/29 06:01:32;;;;;;;8.57;3.42;;;;;;;16.87;100.00;98857.78;5054216;28;20035;-74
2023/05/29 06:03:58;;;;;;;7.05;3.03;;;;;;;16.95;100.00;98865.63;5048799;28;20394;-74
2023/05/29 06:06:23;;;;;;;12.32;3.72;;;;;;;16.63;100.00;98884.31;5046445;28;20021;-75
2023/05/29 06:08:49;;;;;;;8.55;3.40;;;;;;;16.96;100.00;98877.38;5049995;28;20912;-76
2023/05/29 06:11:14;;;;;;;6.90;3.45;;;;;;;17.12;100.00;98879.34;5049425;28;20021;-74
2023/05/29 06:13:40;;;;;;;5.43;2.53;;;;;;;17.73;100.00;98882.34;5052409;28;20098;-75
2023/05/29 06:16:05;;;;;;;10.23;3.00;;;;;;;18.09;100.00;98875.56;5047895;28;20099;-72
2023/05/29 06:18:31;;;;;;;7.85;3.00;;;;;;;18.42;100.00;98883.97;5052578;28;20024;-75
2023/05/29 06:20:56;;;;;;;4.93;2.65;;;;;;;18.60;100.00;98862.59;5048136;28;20022;-74
2023/05/29 06:23:21;;;;;;;7.72;2.88;;;;;;;18.91;100.00;98870.38;5051004;28;20382;-73
2023/05/29 06:25:47;;;;;;;5.13;2.53;;;;;;;19.24;100.00;98872.13;5035629;28;20035;-73
2023/05/29 06:28:13;;;;;;;5.35;3.00;;;;;;;19.59;100.00;98896.34;5032001;28;20025;-73
2023/05/29 06:30:39;;;;;;;5.35;2.38;;;;;;;19.82;100.00;98880.66;5028153;28;20399;-73
2023/05/29 06:33:05;;;;;;;4.53;2.63;;;;;;;20.11;100.00;98886.66;5050919;28;20025;-73
2023/05/29 06:35:30;;;;;;;5.93;2.60;;;;;;;20.44;100.00;98892.94;5051188;28;20413;-73
2023/05/29 06:37:56;;;;;;;6.35;2.30;;;;;;;20.89;100.00;98878.59;5048186;28;20143;-80
2023/05/29 06:40:21;;;;;;;7.55;2.80;;;;;;;21.64;93.27;98881.84;5033145;28;20028;-77
2023/05/29 06:42:47;;;;;;;4.80;2.40;;;;;;;23.68;79.59;98904.44;5033960;28;20029;-76
2023/05/29 06:45:15;;;;;;;6.35;2.95;;;;;;;26.01;65.45;98878.25;5053622;28;20072;-79
2023/05/29 06:47:41;;;;;;;5.68;2.42;;;;;;;27.72;57.62;98884.56;5045198;28;20576;-80
2023/05/29 06:50:07;;;;;;;9.50;2.83;;;;;;;29.45;52.54;98878.22;5033253;28;20087;-74
2023/05/29 06:52:33;;;;;;;6.78;2.58;;;;;;;30.66;49.27;98876.44;5039108;28;20024;-75
2023/05/29 06:54:58;;;;;;;4.50;2.20;;;;;;;30.84;46.43;98871.63;5043444;28;20494;-74
2023/05/29 06:57:24;;;;;;;6.88;2.50;;;;;;;31.51;44.59;98881.06;5026504;28;20140;-75
2023/05/29 06:59:50;;;;;;;6.40;2.85;;;;;;;31.29;43.16;98886.97;5051095;28;20063;-75
2023/05/29 07:02:15;;;;;;;4.07;2.25;;;;;;;32.22;43.68;98902.53;5050753;28;20118;-74
2023/05/29 07:04:41;;;;;;;7.43;2.42;;;;;;;32.70;41.15;98881.44;5049968;28;20063;-74
2023/05/29 07:07:06;;;;;;;4.68;2.60;;;;;;;33.48;41.40;98884.31;5049625;28;20028;-73
2023/05/29 07:09:31;;;;;;;6.47;2.95;;;;;;;34.76;38.75;98889.97;5044492;28;20416;-74
2023/05/29 07:11:56;;;;;;;6.45;2.65;;;;;;;35.43;36.72;98887.19;5027311;28;20024;-72
2023/05/29 07:14:22;;;;;;;4.50;2.38;;;;;;;36.14;36.93;98878.69;5050688;28;20039;-74
2023/05/29 07:16:47;;;;;;;3.85;1.95;;;;;;;36.77;35.75;98892.34;5044573;28;20099;-72
2023/05/29 07:19:13;;;;;;;6.07;2.58;;;;;;;35.81;34.74;98891.25;5045148;28;20467;-76
2023/05/29 07:21:39;;;;;;;5.68;2.30;;;;;;;36.99;34.34;98887.03;5044883;28;20029;-76
2023/05/29 07:24:05;;;;;;;3.45;2.03;;;;;;;36.84;34.10;98881.19;5052197;28;20478;-75
2023/05/29 07:26:31;;;;;;;6.53;2.40;;;;;;;36.93;33.49;98882.91;5049346;28;20032;-75
2023/05/29 07:28:57;;;;;;;4.05;2.10;;;;;;;37.58;33.19;98868.63;5044974;28;20218;-75
2023/05/29 07:31:22;;;;;;;6.45;2.60;;;;;;;38.51;32.35;98880.22;5043233;28;20057;-72
2023/05/29 07:33:48;;;;;;;4.07;2.23;;;;;;;38.26;32.79;98880.78;5045208;28;20025;-75
2023/05/29 07:36:16;;;;;;;4.68;2.08;;;;;;;36.82;33.56;98900.47;5030343;28;20283;-73
2023/05/29 07:38:42;;;;;;;5.50;2.78;;;;;;;37.52;32.69;98886.28;5046030;28;20041;-77
2023/05/29 07:41:07;;;;;;;4.82;2.10;;;;;;;37.49;32.94;98888.66;5035728;28;20092;-75
2023/05/29 07:43:32;;;;;;;6.72;2.83;;;;;;;37.67;32.49;98886.09;5046019;28;20029;-80
2023/05/29 07:45:58;;;;;;;4.93;2.28;;;;;;;37.90;32.52;98891.63;5054361;28;20021;-71
2023/05/29 07:48:23;;;;;;;4.53;2.25;;;;;;;38.49;31.46;98889.13;5058776;28;20560;-72
2023/05/29 07:50:48;;;;;;;6.28;2.25;;;;;;;39.24;31.56;98883.28;5030145;28;20021;-72
2023/05/29 07:53:14;;;;;;;2.88;2.00;;;;;;;39.64;31.08;98885.19;5052417;28;20394;-77
2023/05/29 07:55:40;;;;;;;7.35;3.05;;;;;;;40.12;30.78;98881.34;5053022;28;20445;-81
2023/05/29 07:58:06;;;;;;;4.45;2.35;;;;;;;39.05;31.23;98887.19;5034692;28;20021;-80
2023/05/29 08:00:31;;;;;;;4.72;2.25;;;;;;;37.79;31.21;98881.41;5055086;28;20045;-76
2023/05/29 08:02:57;;;;;;;3.70;2.17;;;;;;;39.73;31.11;98887.63;5043404;28;20021;-74
2023/05/29 08:05:22;;;;;;;3.50;1.90;;;;;;;39.01;30.51;98897.66;5051294;28;20266;-74
2023/05/29 08:07:48;;;;;;;4.43;2.20;;;;;;;39.73;30.98;98881.97;5047654;28;20031;-79
2023/05/29 08:10:14;;;;;;;5.68;2.40;;;;;;;40.91;29.97;98887.16;5028984;28;20529;-74
2023/05/29 08:12:39;;;;;;;3.25;2.08;;;;;;;41.34;29.46;98878.63;5037719;28;20021;-75
2023/05/29 08:15:05;;;;;;;4.75;2.35;;;;;;;40.61;30.02;98877.00;5041729;28;20071;-74
2023/05/29 08:17:30;;;;;;;4.75;2.72;;;;;;;40.22;30.58;98879.75;5051842;28;20395;-75
2023/05/29 08:19:56;;;;;;;4.10;2.00;;;;;;;39.62;30.17;98892.44;5035939;28;20035;-76
2023/05/29 08:22:28;;;;;;;6.43;2.40;;;;;;;39.83;30.60;98895.41;5049062;28;20358;-76
2023/05/29 08:24:53;;;;;;;5.85;2.38;;;;;;;40.60;30.10;98881.03;5053612;28;20021;-76
2023/05/29 08:27:19;;;;;;;4.47;2.15;;;;;;;40.87;29.98;98883.50;5053701;28;20082;-75
2023/05/29 08:29:44;;;;;;;3.85;2.22;;;;;;;41.21;29.60;98892.44;5040135;28;20033;-75
2023/05/29 08:32:09;;;;;;;4.15;2.17;;;;;;;40.64;29.82;98883.88;5037716;28;20052;-75
2023/05/29 08:34:35;;;;;;;5.10;2.23;;;;;;;41.36;29.35;98870.50;5028390;28;20501;-75
2023/05/29 08:37:00;;;;;;;5.97;2.30;;;;;;;40.89;29.25;98889.59;5038163;28;20375;-74
2023/05/29 08:39:25;;;;;;;4.77;2.30;;;;;;;41.16;29.32;98888.00;5031588;28;20471;-77
2023/05/29 08:42:01;;;;;;;5.10;2.22;;;;;;;41.28;28.95;98886.75;5046596;28;20310;-77
2023/05/29 08:44:30;;;;;;;4.80;2.45;;;;;;;41.88;28.89;98865.06;5041552;28;20036;-74
2023/05/29 08:46:56;;;;;;;3.97;2.00;;;;;;;40.76;29.52;98879.88;5049575;28;20029;-75
2023/05/29 08:49:24;;;;;;;4.43;2.40;;;;;;;41.57;28.88;98879.00;5049912;28;20644;-79
2023/05/29 08:52:01;;;;;;;4.60;2.30;;;;;;;41.17;28.72;98878.25;5055099;28;20027;-74
2023/05/29 08:54:31;;;;;;;3.58;2.17;;;;;;;40.85;29.10;98872.59;5049367;28;20037;-74
2023/05/29 08:56:58;;;;;;;4.40;2.15;;;;;;;40.29;29.64;98851.44;5042221;28;20098;-74
2023/05/29 08:59:25;;;;;;;4.90;2.30;;;;;;;38.83;29.37;98865.56;5044196;28;20064;-74
2023/05/29 09:01:50;;;;;;;4.25;2.42;;;;;;;40.69;27.83;98864.47;5055251;28;20048;-78
2023/05/29 09:04:16;;;;;;;5.28;2.83;;;;;;;39.40;27.19;98871.69;5050210;28;20033;-77
2023/05/29 09:06:42;;;;;;;2.95;2.22;;;;;;;38.66;27.31;98869.88;5047886;28;20048;-77
2023/05/29 09:09:09;;;;;;;7.63;3.25;;;;;;;37.96;27.44;98872.31;5035836;28;20104;-79
2023/05/29 09:11:35;;;;;;;5.00;2.45;;;;;;;38.02;27.17;98862.34;5029360;28;20034;-78
2023/05/29 09:14:02;;;;;;;4.95;2.63;;;;;;;37.76;26.89;98876.53;5037505;28;20039;-77
2023/05/29 09:16:27;;;;;;;5.95;2.47;;;;;;;38.76;27.58;98881.28;5044382;28;20021;-79
2023/05/29 09:19:04;;;;;;;6.00;2.60;;;;;;;40.30;27.04;98873.72;5052327;28;20029;-78
2023/05/29 09:21:33;;;;;;;5.60;2.40;;;;;;;38.92;27.41;98869.72;5052226;28;20032;-79
2023/05/29 09:24:03;;;;;;;6.07;2.20;;;;;;;39.02;26.62;98859.69;5035172;28;20043;-79
2023/05/29 09:26:29;;;;;;;6.97;2.47;;;;;;;38.38;26.96;98874.00;5050232;28;20479;-78
2023/05/29 09:28:55;;;;;;;7.68;2.20;;;;;;;39.24;27.11;98866.28;5038462;28;20166;-78
2023/05/29 09:31:21;;;;;;;6.15;2.80;;;;;;;39.15;26.13;98865.84;5052173;28;20116;-79
2023/05/29 09:33:48;;;;;;;4.22;2.35;;;;;;;38.08;27.16;98868.47;5048513;28;20029;-78
2023/05/29 09:36:22;;;;;;;5.97;2.73;;;;;;;38.48;27.05;98886.66;5049115;28;20378;-78
2023/05/29 09:38:47;;;;;;;5.82;2.58;;;;;;;38.06;27.68;98887.81;5053011;28;20063;-78
2023/05/29 09:41:12;;;;;;;6.18;3.47;;;;;;;38.19;27.91;98865.75;5041461;28;20024;-76
2023/05/29 09:43:39;;;;;;;5.55;2.75;;;;;;;37.35;27.34;98879.97;5053032;28;20033;-77
2023/05/29 09:46:06;;;;;;;6.68;2.60;;;;;;;38.07;27.25;98884.59;5052251;28;20489;-77
2023/05/29 09:48:32;;;;;;;4.88;2.35;;;;;;;37.64;27.31;98888.88;5035163;28;20477;-79
2023/05/29 09:50:58;;;;;;;7.88;2.70;;;;;;;37.47;27.51;98853.53;5053413;28;20021;-78
2023/05/29 09:53:28;;;;;;;7.30;2.10;;;;;;;38.56;27.17;98888.34;5049691;28;20025;-78
2023/05/29 09:55:59;;;;;;;4.18;2.20;;;;;;;38.99;26.39;98881.09;5042201;28;20112;-78
2023/05/29 09:58:25;;;;;;;4.53;2.30;;;;;;;39.03;26.48;98877.47;5027331;28;20033;-78
2023/05/29 10:00:51;;;;;;;7.10;2.70;;;;;;;39.71;26.67;98884.38;5052125;28;20025;-77
2023/05/29 10:03:18;;;;;;;6.55;2.30;;;;;;;37.90;27.55;98866.19;5045342;28;20025;-77
2023/05/29 10:05:59;;;;;;;7.95;2.40;;;;;;;38.88;26.28;98870.84;5044729;28;20024;-77
2023/05/29 10:08:25;;;;;;;10.25;2.72;;;;;;;38.63;26.97;98865.00;5053782;28;20106;-79
2023/05/29 10:11:01;;;;;;;5.22;2.33;;;;;;;39.09;26.14;98875.88;5048333;28;20040;-78
2023/05/29 10:13:28;;;;;;;5.65;2.03;;;;;;;39.15;27.04;98865.84;5052847;28;20434;-78
2023/05/29 10:15:55;;;;;;;7.03;2.63;;;;;;;38.82;26.19;98872.44;5051909;28;20029;-78
2023/05/29 10:18:23;;;;;;;8.32;2.70;;;;;;;37.77;27.48;98866.84;5040861;28;20104;-78
2023/05/29 10:20:55;;;;;;;6.32;2.50;;;;;;;37.39;27.32;98868.72;5039473;28;20114;-77
2023/05/29 10:23:22;;;;;;;4.72;2.35;;;;;;;38.00;27.20;98844.97;5052215;28;20029;-76
2023/05/29 10:25:53;;;;;;;16.83;11.90;;;;;;;39.04;26.33;98839.47;5052116;28;20048;-76
2023/05/29 10:28:19;;;;;;;5.63;3.00;;;;;;;39.59;25.59;98864.91;5052003;28;20387;-76
2023/05/29 10:30:54;;;;;;;4.32;2.50;;;;;;;39.51;25.89;98849.09;5042444;28;20052;-77
2023/05/29 10:33:37;;;;;;;3.47;2.45;;;;;;;39.59;26.09;98868.56;5048498;28;20095;-76
2023/05/29 10:36:38;;;;;;;9.85;5.50;;;;;;;39.64;26.45;98871.00;5053227;28;20029;-76
2023/05/29 10:39:03;;;;;;;4.68;2.63;;;;;;;40.74;26.02;98863.25;5024412;28;20032;-76
2023/05/29 10:41:29;;;;;;;4.35;2.60;;;;;;;40.57;26.41;98856.34;5050653;28;20047;-77
2023/05/29 10:44:02;;;;;;;3.88;2.20;;;;;;;40.25;25.65;98859.13;5034973;28;20067;-76
2023/05/29 10:46:43;;;;;;;7.07;2.13;;;;;;;39.42;25.16;98870.06;5051546;28;20052;-76
2023/05/29 10:49:18;;;;;;;3.95;2.17;;;;;;;40.39;25.54;98864.00;5038851;28;20387;-76
2023/05/29 10:51:44;;;;;;;6.97;2.20;;;;;;;40.05;24.27;98858.63;5049469;28;20024;-76
2023/05/29 10:54:10;;;;;;;6.47;2.10;;;;;;;38.78;24.99;98866.75;5042376;28;20074;-76
2023/05/29 10:56:35;;;;;;;7.00;2.10;;;;;;;39.00;24.41;98840.28;5031147;28;20018;-76
2023/05/29 10:59:01;;;;;;;4.72;1.92;;;;;;;37.52;25.54;98841.94;5031481;28;20316;-76
2023/05/29 11:01:28;;;;;;;3.33;2.00;;;;;;;38.28;25.51;98863.41;5051545;28;20037;-76
2023/05/29 11:04:15;;;;;;;5.28;2.20;;;;;;;39.16;24.52;98858.97;5051103;28;20020;-76
2023/05/29 11:06:40;;;;;;;4.25;2.05;;;;;;;38.61;24.29;98844.78;5034049;28;20033;-76
2023/05/29 11:09:08;;;;;;;4.60;2.05;;;;;;;38.08;25.42;98846.66;5035086;28;20032;-75
2023/05/29 11:11:36;;;;;;;3.25;2.00;;;;;;;38.43;25.20;98851.06;5046234;28;20131;-76
2023/05/29 11:14:04;;;;;;;10.73;2.05;;;;;;;38.89;25.30;98838.59;5047595;28;20402;-76
2023/05/29 11:16:29;;;;;;;4.20;2.20;;;;;;;38.28;25.04;98858.59;5051092;28;20044;-76
2023/05/29 11:18:55;;;;;;;2.53;1.90;;;;;;;38.48;25.46;98859.19;5049431;28;20029;-77
2023/05/29 11:21:46;;;;;;;9.02;1.75;;;;;;;38.63;24.69;98865.00;5046304;28;20033;-76
2023/05/29 11:24:18;;;;;;;6.30;2.17;;;;;;;39.60;24.01;98855.22;5041507;28;20029;-77
2023/05/29 11:26:45;;;;;;;4.75;1.95;;;;;;;41.04;23.88;98848.63;5047342;28;20026;-77